Terminal Aerodrome Forecast
Issued by NWS

Home | Current Version | Previous Version | Text Only | Print | Product List | Glossary On
Versions: 1 2 3 4 5 6 7 8 9 10 11 12 13
101
FTUS46 KMTR 111727
TAFSNS
TAF
KSNS 111727Z 1118/1218 09012KT P6SM SKC
     FM112000 27008KT P6SM SCT200
     FM120600 11005KT P6SM SCT250=

USA.gov is the U.S. government's official web portal to all federal, state and local government web resources and services.